Terminal Aerodrome Forecast
Issued by NWS

Current Version | Previous Version | Text Only | Print | Product List | Glossary On
Versions: 1 2 3 4 5 6 7 8 9 10 11 12 13 14 15 16 17 18 19 20 21 22 23 24 25 26 27 28 29 30
644
FTAK31 PANC 291731
TAFADU
TAF
PADU 291731Z 2918/3018 13023G32KT 4SM -RA BR OVC015
      TEMPO 2918/2922 6SM -RA BR OVC025
     FM300300 15015G25KT P6SM -SHRA SCT015 OVC025
     FM301500 13018G28KT 6SM -SHRA BR OVC015=

USA.gov is the U.S. government's official web portal to all federal, state and local government web resources and services.